Time;durP1;ratioP1;P1;durP2;ratioP2;P2;SDS_P1;SDS_P2;PMS_P1;PMS_P2;Temp;Humidity;BMP_temperature;BMP_pressure;BME280_temperature;BME280_humidity;BME280_pressure;Samples;Min_cycle;Max_cycle;Signal;HPM_P1;HPM_P2
2022/04/02 00:01:19;;;;;;;37.38;34.58;;;1.40;94.70;;;;;;5052553;28;20223;-73
2022/04/02 00:03:46;;;;;;;35.85;33.05;;;1.30;94.80;;;;;;5052526;28;20289;-73
2022/04/02 00:06:13;;;;;;;36.25;33.45;;;1.50;94.80;;;;;;5052873;28;20286;-73
2022/04/02 00:08:41;;;;;;;37.20;34.30;;;1.50;94.50;;;;;;5052587;28;20200;-73
2022/04/02 00:11:08;;;;;;;36.45;33.75;;;1.40;94.40;;;;;;5052607;28;20195;-73
2022/04/02 00:13:36;;;;;;;36.05;33.40;;;1.30;94.60;;;;;;5052630;28;20231;-73
2022/04/02 00:16:05;;;;;;;35.65;32.95;;;1.20;95.10;;;;;;5052699;28;20214;-73
2022/04/02 00:18:31;;;;;;;34.40;31.90;;;1.20;95.40;;;;;;5052567;28;20206;-73
2022/04/02 00:20:59;;;;;;;35.60;32.90;;;1.30;95.60;;;;;;5052325;28;20226;-73
2022/04/02 00:23:40;;;;;;;35.58;32.85;;;1.20;95.20;;;;;;5052675;28;20301;-74
2022/04/02 00:26:09;;;;;;;35.90;33.05;;;1.30;95.10;;;;;;5052056;28;20203;-73
2022/04/02 00:28:37;;;;;;;35.80;33.10;;;1.40;94.80;;;;;;5052574;28;20206;-73
2022/04/02 00:31:05;;;;;;;36.35;33.55;;;1.50;94.50;;;;;;5052381;28;20253;-74
2022/04/02 00:33:32;;;;;;;35.60;32.90;;;1.40;94.10;;;;;;5052324;28;20763;-73
2022/04/02 00:35:59;;;;;;;37.58;34.88;;;1.40;94.00;;;;;;5052552;28;20286;-73
2022/04/02 00:38:26;;;;;;;35.50;32.88;;;1.30;94.50;;;;;;5052484;28;20195;-73
2022/04/02 00:40:53;;;;;;;37.10;34.30;;;1.40;94.90;;;;;;5052264;28;20310;-73
2022/04/02 00:43:25;;;;;;;34.28;31.58;;;1.40;94.80;;;;;;5052390;28;20718;-73
2022/04/02 00:45:52;;;;;;;37.35;34.55;;;1.40;94.30;;;;;;5052288;28;20713;-73
2022/04/02 00:48:20;;;;;;;37.05;34.15;;;1.30;94.80;;;;;;5052401;28;20199;-73
2022/04/02 00:50:48;;;;;;;34.80;32.20;;;1.40;94.80;;;;;;5052076;28;20207;-73
2022/04/02 00:53:16;;;;;;;34.10;31.70;;;1.30;95.00;;;;;;5052304;28;20222;-73
2022/04/02 00:55:43;;;;;;;37.45;34.55;;;1.50;94.80;;;;;;5052407;28;20549;-73
2022/04/02 00:58:11;;;;;;;36.83;34.03;;;1.50;94.00;;;;;;5052214;28;20555;-73
2022/04/02 01:00:40;;;;;;;35.05;32.38;;;1.60;94.20;;;;;;5052025;28;20220;-73
2022/04/02 01:03:08;;;;;;;37.42;34.00;;;1.70;93.80;;;;;;5051943;28;20230;-73
2022/04/02 01:05:35;;;;;;;37.30;34.10;;;1.80;93.50;;;;;;5052160;28;20200;-73
2022/04/02 01:08:05;;;;;;;35.22;32.53;;;1.70;93.30;;;;;;5052136;28;20202;-73
2022/04/02 01:10:32;;;;;;;34.92;32.33;;;1.70;93.90;;;;;;5052028;28;20218;-73
2022/04/02 01:12:59;;;;;;;37.50;34.72;;;1.80;93.60;;;;;;5052183;28;20281;-73
2022/04/02 01:15:26;;;;;;;36.10;33.28;;;1.90;92.80;;;;;;5052091;28;20203;-73
2022/04/02 01:17:54;;;;;;;37.38;34.42;;;1.70;93.10;;;;;;5052099;28;20537;-73
2022/04/02 01:20:21;;;;;;;36.22;33.33;;;1.60;93.40;;;;;;5051827;28;20226;-73
2022/04/02 01:22:50;;;;;;;36.03;33.38;;;1.60;93.40;;;;;;5051988;28;20219;-73
2022/04/02 01:25:17;;;;;;;36.67;33.78;;;1.50;93.50;;;;;;5051932;28;20210;-73
2022/04/02 01:27:44;;;;;;;35.47;32.78;;;1.50;93.90;;;;;;5051889;28;20682;-73
2022/04/02 01:30:13;;;;;;;35.50;32.80;;;1.60;93.80;;;;;;5051745;28;20196;-73
2022/04/02 01:32:40;;;;;;;37.17;34.22;;;1.60;93.40;;;;;;5051917;28;20731;-73
2022/04/02 01:35:08;;;;;;;57.20;36.38;;;1.60;93.60;;;;;;5051915;28;20209;-73
2022/04/02 01:37:35;;;;;;;36.45;33.40;;;1.70;93.90;;;;;;5052591;28;20210;-73
2022/04/02 01:40:04;;;;;;;34.95;32.15;;;1.60;93.30;;;;;;5055281;28;20233;-73
2022/04/02 01:42:31;;;;;;;35.47;32.70;;;1.60;93.50;;;;;;5055589;28;20241;-73
2022/04/02 01:44:59;;;;;;;34.75;31.83;;;1.60;93.70;;;;;;5055565;28;20683;-73
2022/04/02 01:47:25;;;;;;;33.65;31.23;;;1.60;93.50;;;;;;5055559;28;20200;-73
2022/04/02 01:49:52;;;;;;;35.53;32.95;;;1.60;93.30;;;;;;5055248;28;20195;-73
2022/04/02 01:52:21;;;;;;;33.90;31.30;;;1.60;93.20;;;;;;5055256;28;20712;-73
2022/04/02 01:54:48;;;;;;;34.47;31.83;;;1.50;93.40;;;;;;5055323;28;20196;-73
2022/04/02 01:57:17;;;;;;;34.80;32.30;;;1.50;93.50;;;;;;5055252;28;20199;-73
2022/04/02 01:59:47;;;;;;;33.88;31.48;;;1.50;93.30;;;;;;5055013;28;20656;-73
2022/04/02 02:02:15;;;;;;;33.88;31.38;;;1.50;93.40;;;;;;5055001;28;20231;-73
2022/04/02 02:04:42;;;;;;;33.00;30.40;;;1.50;93.40;;;;;;5055243;28;20211;-73
2022/04/02 02:07:09;;;;;;;35.42;32.63;;;1.40;93.30;;;;;;5054988;28;20537;-73
2022/04/02 02:09:36;;;;;;;34.17;31.70;;;1.40;93.90;;;;;;5054960;28;20210;-73
2022/04/02 02:12:04;;;;;;;33.55;30.92;;;1.40;94.00;;;;;;5055006;28;20206;-73
2022/04/02 02:14:33;;;;;;;34.30;31.65;;;1.40;93.50;;;;;;5054905;28;20538;-73
2022/04/02 02:16:59;;;;;;;34.55;31.83;;;1.50;93.50;;;;;;5055062;28;20197;-73
2022/04/02 02:19:26;;;;;;;32.40;30.00;;;1.70;93.60;;;;;;5054677;28;20219;-73
2022/04/02 02:21:53;;;;;;;32.17;29.85;;;1.80;92.60;;;;;;5054629;28;20224;-73
2022/04/02 02:24:21;;;;;;;32.95;30.38;;;1.70;92.00;;;;;;5054825;28;20203;-73
2022/04/02 02:26:48;;;;;;;33.28;30.67;;;1.80;92.00;;;;;;5054744;28;20196;-73
2022/04/02 02:29:15;;;;;;;33.30;30.90;;;1.80;91.30;;;;;;5054584;28;20203;-73
2022/04/02 02:31:43;;;;;;;34.20;31.52;;;1.90;91.40;;;;;;5054638;28;20288;-73
2022/04/02 02:36:54;;;;;;;104.45;35.72;;;1.80;91.00;;;;;;5054764;28;20203;-73
2022/04/02 02:39:21;;;;;;;32.60;30.20;;;1.70;91.40;;;;;;5054357;28;20227;-73
2022/04/02 02:41:48;;;;;;;31.48;29.17;;;1.70;91.70;;;;;;5054343;28;20326;-73
2022/04/02 02:44:15;;;;;;;31.55;29.25;;;1.80;91.00;;;;;;5054430;28;20237;-73
2022/04/02 02:46:43;;;;;;;30.17;28.08;;;1.80;90.70;;;;;;5054361;28;20204;-73
2022/04/02 02:49:10;;;;;;;30.23;28.10;;;1.90;90.70;;;;;;5053495;28;20228;-73
2022/04/02 02:51:37;;;;;;;30.90;28.70;;;1.80;90.80;;;;;;5054104;28;20204;-73
2022/04/02 02:54:04;;;;;;;31.50;29.20;;;1.60;91.20;;;;;;5054293;28;20227;-73
2022/04/02 02:56:31;;;;;;;31.50;29.23;;;1.60;91.20;;;;;;5054187;28;20287;-73
2022/04/02 02:58:58;;;;;;;32.38;29.60;;;1.60;91.30;;;;;;5054100;28;20284;-73
2022/04/02 03:01:25;;;;;;;30.80;28.30;;;1.70;91.50;;;;;;5053805;28;20230;-73
2022/04/02 03:03:53;;;;;;;31.58;29.50;;;1.80;91.40;;;;;;5053684;28;20309;-73
2022/04/02 03:06:20;;;;;;;31.02;28.83;;;1.80;91.10;;;;;;5054026;28;20545;-73
2022/04/02 03:08:46;;;;;;;30.42;28.23;;;1.80;90.90;;;;;;5053846;28;20201;-73
2022/04/02 03:11:13;;;;;;;29.25;27.23;;;1.70;91.10;;;;;;5053774;28;20196;-73
2022/04/02 03:13:40;;;;;;;27.95;25.73;;;1.80;91.40;;;;;;5053841;28;20216;-73
2022/04/02 03:16:07;;;;;;;31.95;29.42;;;1.90;90.50;;;;;;5053817;28;20565;-73
2022/04/02 03:18:34;;;;;;;30.73;28.23;;;1.90;90.60;;;;;;5053788;28;20206;-73
2022/04/02 03:21:02;;;;;;;31.85;29.45;;;1.90;90.60;;;;;;5053349;28;20222;-73
2022/04/02 03:23:29;;;;;;;30.13;28.00;;;1.90;90.70;;;;;;5053568;28;20250;-73
2022/04/02 03:25:56;;;;;;;29.75;27.65;;;1.80;90.70;;;;;;5053653;28;20199;-73
2022/04/02 03:28:23;;;;;;;28.30;26.13;;;1.90;90.30;;;;;;5053482;28;20287;-73
2022/04/02 03:30:50;;;;;;;30.25;28.13;;;1.70;90.40;;;;;;5053430;28;20207;-73
2022/04/02 03:33:20;;;;;;;31.35;28.10;;;1.80;90.30;;;;;;5053541;28;20222;-73
2022/04/02 03:35:47;;;;;;;31.48;29.17;;;1.90;90.50;;;;;;5053497;28;20212;-73
2022/04/02 03:38:16;;;;;;;30.35;28.15;;;1.80;90.90;;;;;;5053313;28;20207;-73
2022/04/02 03:40:43;;;;;;;30.90;28.67;;;1.70;91.50;;;;;;5053078;28;20220;-73
2022/04/02 03:43:10;;;;;;;31.63;29.42;;;1.70;91.40;;;;;;5053307;28;20574;-73
2022/04/02 03:45:37;;;;;;;31.20;28.77;;;1.70;91.90;;;;;;5053358;28;20283;-73
2022/04/02 03:48:04;;;;;;;33.40;30.83;;;1.60;92.60;;;;;;5053218;28;20621;-73
2022/04/02 03:50:31;;;;;;;32.28;29.75;;;1.70;92.10;;;;;;5052721;28;20203;-73
2022/04/02 03:52:58;;;;;;;31.83;29.27;;;1.70;92.00;;;;;;5053175;28;20223;-73
2022/04/02 03:55:27;;;;;;;33.03;30.23;;;1.60;92.50;;;;;;5053017;28;20617;-73
2022/04/02 03:57:54;;;;;;;31.85;29.35;;;1.60;93.10;;;;;;5053143;28;20892;-73
2022/04/02 04:00:20;;;;;;;32.67;29.98;;;1.60;92.90;;;;;;5052663;28;20205;-73
2022/04/02 04:02:48;;;;;;;31.17;28.77;;;1.60;92.60;;;;;;5051862;28;20226;-73
2022/04/02 04:05:15;;;;;;;33.72;31.02;;;1.50;92.80;;;;;;5052874;28;20283;-73
2022/04/02 04:07:42;;;;;;;32.13;29.38;;;1.50;92.20;;;;;;5052637;28;20526;-73
2022/04/02 04:10:09;;;;;;;32.78;29.83;;;1.60;91.70;;;;;;5052595;28;20208;-73
2022/04/02 04:12:37;;;;;;;29.73;27.52;;;1.60;91.90;;;;;;5052797;28;20230;-73
2022/04/02 04:15:05;;;;;;;30.10;27.65;;;1.60;91.70;;;;;;5052840;28;20203;-73
2022/04/02 04:17:32;;;;;;;30.13;27.33;;;1.50;91.50;;;;;;5052819;28;20214;-73
2022/04/02 04:19:59;;;;;;;30.75;28.23;;;1.40;92.30;;;;;;5052443;28;20667;-73
2022/04/02 04:22:26;;;;;;;30.02;27.30;;;1.60;92.20;;;;;;5052570;28;20233;-73
2022/04/02 04:24:53;;;;;;;28.70;26.45;;;1.50;91.40;;;;;;5052690;28;20211;-73
2022/04/02 04:27:19;;;;;;;28.95;26.48;;;1.50;91.90;;;;;;5052701;28;20201;-73
2022/04/02 04:29:48;;;;;;;28.08;25.48;;;1.50;92.10;;;;;;5052664;28;20203;-73
2022/04/02 04:32:15;;;;;;;31.90;29.42;;;1.60;91.80;;;;;;5052804;28;20295;-73
2022/04/02 04:34:42;;;;;;;30.83;28.70;;;1.50;91.70;;;;;;5052762;28;20238;-73
2022/04/02 04:37:09;;;;;;;30.38;27.33;;;1.40;92.80;;;;;;5052509;28;20207;-73
2022/04/02 04:39:37;;;;;;;28.88;26.65;;;1.40;93.60;;;;;;5052274;28;20289;-73
2022/04/02 04:42:04;;;;;;;29.63;27.33;;;1.40;94.00;;;;;;5052380;28;20216;-73
2022/04/02 04:44:31;;;;;;;28.27;26.08;;;1.40;93.80;;;;;;5052408;28;20244;-73
2022/04/02 04:46:59;;;;;;;30.40;28.05;;;1.40;94.40;;;;;;5052381;28;20201;-73
2022/04/02 04:49:26;;;;;;;31.95;29.45;;;1.30;94.40;;;;;;5052036;28;20204;-73
2022/04/02 04:51:53;;;;;;;30.75;28.55;;;1.30;94.80;;;;;;5052162;28;20351;-73
2022/04/02 04:54:20;;;;;;;31.95;29.65;;;1.40;94.80;;;;;;5052347;28;20634;-73
2022/04/02 04:56:47;;;;;;;32.47;29.90;;;1.40;94.60;;;;;;5052236;28;20226;-73
2022/04/02 04:59:14;;;;;;;33.47;31.17;;;1.40;94.70;;;;;;5051999;28;20579;-73
2022/04/02 05:01:41;;;;;;;34.28;31.73;;;1.30;94.40;;;;;;5051959;28;20223;-73
2022/04/02 05:04:09;;;;;;;35.30;32.83;;;1.30;94.70;;;;;;5052138;28;20565;-73
2022/04/02 05:06:37;;;;;;;33.65;31.35;;;1.20;94.80;;;;;;5052147;28;20290;-73
2022/04/02 05:09:06;;;;;;;34.72;31.85;;;1.20;94.90;;;;;;5051941;28;20199;-73
2022/04/02 05:11:34;;;;;;;37.88;35.17;;;1.20;94.20;;;;;;5052238;28;20660;-73
2022/04/02 05:14:01;;;;;;;37.47;34.53;;;1.00;95.20;;;;;;5055410;28;20216;-73
2022/04/02 05:16:28;;;;;;;37.50;34.90;;;1.00;95.60;;;;;;5055975;28;20198;-74
2022/04/02 05:18:56;;;;;;;38.97;36.17;;;1.10;95.40;;;;;;5055926;28;20200;-73
2022/04/02 05:21:24;;;;;;;37.17;34.28;;;1.20;95.30;;;;;;5055801;28;20232;-73
2022/04/02 05:23:51;;;;;;;36.42;33.60;;;1.10;95.20;;;;;;5055890;28;20728;-73
2022/04/02 05:26:19;;;;;;;35.95;33.13;;;1.10;95.50;;;;;;5055898;28;20200;-73
2022/04/02 05:28:46;;;;;;;33.78;31.15;;;1.10;95.20;;;;;;5055905;28;20567;-73
2022/04/02 05:31:12;;;;;;;34.33;31.70;;;1.20;95.30;;;;;;5055596;28;20207;-73
2022/04/02 05:33:39;;;;;;;34.80;32.30;;;1.00;95.40;;;;;;5055851;28;20225;-73
2022/04/02 05:36:06;;;;;;;37.25;34.70;;;1.00;95.50;;;;;;5055863;28;20203;-73
2022/04/02 05:38:35;;;;;;;35.78;33.30;;;1.10;95.40;;;;;;5055519;28;20567;-73
2022/04/02 05:41:02;;;;;;;36.47;34.00;;;1.20;95.00;;;;;;5055390;28;20199;-73
2022/04/02 05:43:29;;;;;;;32.53;30.13;;;1.20;94.90;;;;;;5055350;28;20215;-73
2022/04/02 05:45:56;;;;;;;36.83;33.83;;;1.00;94.80;;;;;;5055777;28;20672;-73
2022/04/02 05:48:24;;;;;;;35.28;32.78;;;1.00;95.40;;;;;;5055568;28;20606;-73
2022/04/02 05:50:51;;;;;;;37.15;34.45;;;1.00;95.20;;;;;;5055139;28;20214;-73
2022/04/02 05:53:18;;;;;;;33.95;31.55;;;1.10;95.50;;;;;;5066696;22;20253;-73
2022/04/02 05:55:48;;;;;;;34.10;31.80;;;1.20;95.20;;;;;;5075262;28;20208;-73
2022/04/02 05:58:15;;;;;;;59.63;33.60;;;1.20;95.10;;;;;;5075210;28;20654;-73
2022/04/02 06:00:43;;;;;;;34.97;32.50;;;1.20;94.80;;;;;;5075238;28;20199;-73
2022/04/02 06:03:10;;;;;;;35.78;33.28;;;1.30;94.50;;;;;;5075056;28;20302;-73
2022/04/02 06:05:37;;;;;;;36.28;33.85;;;1.30;94.10;;;;;;5075028;28;20289;-73
2022/04/02 06:08:05;;;;;;;32.70;30.30;;;1.20;94.40;;;;;;5075347;28;20206;-73
2022/04/02 06:10:31;;;;;;;35.83;33.33;;;1.10;94.50;;;;;;5074910;28;20235;-73
2022/04/02 06:13:01;;;;;;;33.13;30.83;;;1.10;94.60;;;;;;5074995;28;20225;-73
2022/04/02 06:15:27;;;;;;;34.53;32.22;;;1.20;94.90;;;;;;5074984;28;20203;-73
2022/04/02 06:17:55;;;;;;;31.90;29.55;;;1.20;94.60;;;;;;5074928;28;20289;-73
2022/04/02 06:20:21;;;;;;;34.35;32.00;;;1.20;95.00;;;;;;5074731;28;20257;-73
2022/04/02 06:22:48;;;;;;;32.78;30.58;;;1.30;94.80;;;;;;5074808;28;20229;-73
2022/04/02 06:25:15;;;;;;;34.20;31.80;;;1.30;94.10;;;;;;5073719;28;20202;-73
2022/04/02 06:27:43;;;;;;;36.33;34.03;;;1.30;94.40;;;;;;5074715;28;20602;-73
2022/04/02 06:30:14;;;;;;;34.83;32.42;;;1.30;94.10;;;;;;5074530;28;20553;-73
2022/04/02 06:32:41;;;;;;;34.67;32.35;;;1.10;94.80;;;;;;5074734;28;20593;-73
2022/04/02 06:35:09;;;;;;;35.50;33.15;;;1.10;94.90;;;;;;5074585;28;20205;-73
2022/04/02 06:37:38;;;;;;;30.65;28.45;;;1.10;94.80;;;;;;5074612;28;20197;-73
2022/04/02 06:40:07;;;;;;;33.92;31.73;;;1.20;94.70;;;;;;5074560;28;20223;-73
2022/04/02 06:42:34;;;;;;;31.67;29.65;;;1.40;93.80;;;;;;5074362;28;20222;-73
2022/04/02 06:45:01;;;;;;;31.25;29.05;;;1.50;93.50;;;;;;5074563;28;20264;-74
2022/04/02 06:47:31;;;;;;;34.72;32.53;;;1.50;92.50;;;;;;5074251;28;20209;-74
2022/04/02 06:49:59;;;;;;;32.17;30.00;;;1.40;92.80;;;;;;5074225;28;20208;-73
2022/04/02 06:52:27;;;;;;;32.10;30.00;;;1.50;93.00;;;;;;5074381;28;20210;-73
2022/04/02 06:54:54;;;;;;;31.23;29.02;;;1.40;92.80;;;;;;5074196;28;20247;-73
2022/04/02 06:57:21;;;;;;;33.40;31.20;;;1.40;92.50;;;;;;5074223;28;20199;-73
2022/04/02 06:59:49;;;;;;;32.13;29.90;;;1.40;92.90;;;;;;5073879;28;20615;-73
2022/04/02 07:02:16;;;;;;;34.65;32.40;;;1.20;93.30;;;;;;5073836;28;20560;-73
2022/04/02 07:04:45;;;;;;;32.58;30.38;;;1.20;94.10;;;;;;5074214;28;20196;-73
2022/04/02 07:07:12;;;;;;;33.67;31.27;;;1.30;94.10;;;;;;5073824;28;20201;-73
2022/04/02 07:09:39;;;;;;;34.75;32.25;;;1.40;93.70;;;;;;5073790;28;20290;-73
2022/04/02 07:12:08;;;;;;;32.97;30.88;;;1.50;93.00;;;;;;5073843;28;20756;-73
2022/04/02 07:14:35;;;;;;;34.13;32.13;;;1.30;92.90;;;;;;5073818;28;20199;-73
2022/04/02 07:17:01;;;;;;;36.72;34.17;;;1.30;93.40;;;;;;5073773;28;20559;-73
2022/04/02 07:19:31;;;;;;;36.42;34.05;;;1.30;93.50;;;;;;5073587;28;20607;-73
2022/04/02 07:22:00;;;;;;;34.25;31.92;;;1.40;93.40;;;;;;5073596;28;20219;-73
2022/04/02 07:24:27;;;;;;;33.85;31.38;;;1.40;92.70;;;;;;5073687;28;20297;-73
2022/04/02 07:26:56;;;;;;;36.15;33.53;;;1.40;92.50;;;;;;5073468;28;20624;-73
2022/04/02 07:29:27;;;;;;;37.65;35.35;;;1.40;92.70;;;;;;5073341;28;20283;-73
2022/04/02 07:31:54;;;;;;;34.65;32.25;;;1.20;92.60;;;;;;5073385;28;20221;-73
2022/04/02 07:34:21;;;;;;;39.95;37.35;;;1.20;93.40;;;;;;5073434;28;20552;-73
2022/04/02 07:37:04;;;;;;;36.28;33.88;;;1.30;93.10;;;;;;5073289;28;20199;-73
2022/04/02 07:39:37;;;;;;;34.05;31.85;;;1.20;93.90;;;;;;5073267;28;20199;-73
2022/04/02 07:42:11;;;;;;;38.33;35.63;;;1.30;93.10;;;;;;5073372;28;20230;-73
2022/04/02 07:44:52;;;;;;;34.17;31.80;;;1.30;93.10;;;;;;5073326;28;20210;-73
2022/04/02 07:47:24;;;;;;;37.20;34.55;;;1.30;93.50;;;;;;5073274;28;20206;-73
2022/04/02 07:49:55;;;;;;;32.28;30.05;;;1.30;93.40;;;;;;5072978;28;20294;-73
2022/04/02 07:52:24;;;;;;;34.13;31.83;;;1.30;93.60;;;;;;5073085;28;20212;-73
2022/04/02 07:54:56;;;;;;;32.97;30.75;;;1.20;92.30;;;;;;5072907;28;20622;-73
2022/04/02 07:57:27;;;;;;;32.45;30.35;;;1.10;92.40;;;;;;5073197;28;20216;-73
2022/04/02 08:00:00;;;;;;;31.60;29.40;;;1.20;93.00;;;;;;5072739;28;20225;-73
2022/04/02 08:02:42;;;;;;;34.25;31.85;;;1.20;92.40;;;;;;5072750;28;20226;-73
2022/04/02 08:05:11;;;;;;;33.90;31.50;;;1.10;92.30;;;;;;5072905;28;20199;-73
2022/04/02 08:07:43;;;;;;;37.17;34.67;;;1.10;93.60;;;;;;5072838;28;20200;-73
2022/04/02 08:10:12;;;;;;;30.92;28.73;;;1.10;93.10;;;;;;5072599;28;20213;-73
2022/04/02 08:12:39;;;;;;;35.60;33.33;;;1.10;93.90;;;;;;5072688;28;20694;-74
2022/04/02 08:15:09;;;;;;;32.40;30.05;;;1.20;93.70;;;;;;5072728;28;20320;-73
2022/04/02 08:17:38;;;;;;;31.23;29.23;;;1.40;93.10;;;;;;5072880;28;20203;-74
2022/04/02 08:20:06;;;;;;;33.47;31.27;;;1.40;92.00;;;;;;5072526;28;20205;-74
2022/04/02 08:22:33;;;;;;;33.03;30.83;;;1.20;91.90;;;;;;5072556;28;20232;-74
2022/04/02 08:25:02;;;;;;;29.02;27.13;;;1.10;92.70;;;;;;5072631;28;20195;-73
2022/04/02 08:27:35;;;;;;;32.47;30.17;;;1.20;92.10;;;;;;5072654;28;20199;-74
2022/04/02 08:30:07;;;;;;;31.45;29.33;;;1.30;92.30;;;;;;5072431;28;20544;-73
2022/04/02 08:33:04;;;;;;;33.85;31.75;;;1.20;91.70;;;;;;5072565;28;20768;-73
2022/04/02 08:35:39;;;;;;;32.78;30.48;;;1.30;91.80;;;;;;5072466;28;20215;-73
2022/04/02 08:38:28;;;;;;;31.55;29.45;;;1.30;91.20;;;;;;5072521;28;20228;-73
2022/04/02 08:41:26;;;;;;;33.25;31.00;;;1.40;90.60;;;;;;5073038;28;20206;-73
2022/04/02 08:44:14;;;;;;;33.55;31.35;;;1.40;91.00;;;;;;5072232;28;20281;-73
2022/04/02 08:47:00;;;;;;;32.95;30.65;;;1.20;92.00;;;;;;5072384;28;20332;-74
2022/04/02 08:49:39;;;;;;;33.50;31.52;;;1.30;91.30;;;;;;5072173;28;20683;-73
2022/04/02 08:52:21;;;;;;;32.45;30.35;;;1.40;90.40;;;;;;5072338;28;20632;-73
2022/04/02 08:55:07;;;;;;;34.78;32.33;;;1.20;91.10;;;;;;5072268;28;20218;-74
2022/04/02 08:57:57;;;;;;;36.90;33.55;;;1.20;91.40;;;;;;5072399;28;20549;-74
2022/04/02 09:00:26;;;;;;;31.52;29.50;;;1.40;91.90;;;;;;5072059;28;20234;-74
2022/04/02 09:03:25;;;;;;;36.08;33.70;;;1.60;91.40;;;;;;5071840;28;20387;-74
2022/04/02 09:06:07;;;;;;;35.72;33.38;;;1.90;90.20;;;;;;5072381;28;20211;-74
2022/04/02 09:09:03;;;;;;;33.70;31.40;;;1.90;89.30;;;;;;5072049;28;20279;-73
2022/04/02 09:11:47;;;;;;;35.75;32.85;;;2.00;89.40;;;;;;5072083;28;20204;-74
2022/04/02 09:14:32;;;;;;;36.40;33.95;;;1.80;89.30;;;;;;5072380;28;20291;-74
2022/04/02 09:17:10;;;;;;;33.78;31.38;;;1.60;89.70;;;;;;5072191;28;20215;-74
2022/04/02 09:19:53;;;;;;;37.67;34.92;;;1.40;90.20;;;;;;5071860;28;20207;-73
2022/04/02 09:22:36;;;;;;;39.22;36.53;;;1.50;91.30;;;;;;5072069;28;20215;-74
2022/04/02 09:25:47;;;;;;;33.70;31.27;;;1.70;90.00;;;;;;5070048;28;20682;-74
2022/04/02 09:28:42;;;;;;;35.90;33.42;;;1.70;89.50;;;;;;5034721;28;20620;-74
2022/04/02 09:31:52;;;;;;;34.72;32.33;;;1.60;89.50;;;;;;5054452;28;20199;-74
2022/04/02 09:34:50;;;;;;;38.17;35.63;;;1.50;88.80;;;;;;5071950;28;20201;-74
2022/04/02 09:37:30;;;;;;;35.25;32.75;;;1.50;88.70;;;;;;5072020;28;20283;-74
2022/04/02 09:40:05;;;;;;;36.08;33.47;;;1.30;89.60;;;;;;5071823;28;20285;-73
2022/04/02 09:42:37;;;;;;;36.33;33.58;;;1.20;89.60;;;;;;5071897;28;20225;-73
2022/04/02 09:45:08;;;;;;;33.55;31.25;;;0.90;90.20;;;;;;5071931;28;20203;-73
2022/04/02 09:48:06;;;;;;;37.35;34.75;;;1.00;91.30;;;;;;5071890;28;20225;-73
2022/04/02 09:50:33;;;;;;;36.95;34.05;;;1.20;91.20;;;;;;5071576;28;20198;-73
2022/04/02 09:53:14;;;;;;;35.88;33.28;;;1.30;89.80;;;;;;5071686;28;20223;-73
2022/04/02 09:55:45;;;;;;;36.97;34.38;;;1.30;89.60;;;;;;5071900;28;20226;-73
2022/04/02 09:58:57;;;;;;;37.88;35.08;;;1.30;89.50;;;;;;5071722;28;20745;-73
2022/04/02 10:01:30;;;;;;;37.00;34.22;;;1.40;89.50;;;;;;5066594;28;20207;-73
2022/04/02 10:04:01;;;;;;;36.25;33.45;;;1.40;89.90;;;;;;5074867;28;20658;-73
2022/04/02 10:06:32;;;;;;;38.10;35.42;;;1.50;89.00;;;;;;5075292;28;20298;-73
2022/04/02 10:09:10;;;;;;;35.67;32.90;;;1.40;88.70;;;;;;5075026;28;20203;-73
2022/04/02 10:11:43;;;;;;;34.72;32.28;;;1.50;88.60;;;;;;5075068;28;20207;-73
2022/04/02 10:14:11;;;;;;;37.65;34.75;;;1.50;87.90;;;;;;5075140;28;20218;-73
2022/04/02 10:16:41;;;;;;;35.20;32.67;;;1.50;88.10;;;;;;5075022;28;20199;-73
2022/04/02 10:19:11;;;;;;;38.80;35.40;;;1.60;87.30;;;;;;5074780;28;20215;-73
2022/04/02 10:21:40;;;;;;;36.70;34.10;;;1.60;88.40;;;;;;5074772;28;20621;-73
2022/04/02 10:24:21;;;;;;;34.00;31.35;;;1.60;87.50;;;;;;5074568;28;20220;-73
2022/04/02 10:26:50;;;;;;;40.92;37.83;;;1.70;87.90;;;;;;5074871;28;20273;-73
2022/04/02 10:29:38;;;;;;;40.38;37.60;;;1.80;86.90;;;;;;5074609;28;20237;-73
2022/04/02 10:32:24;;;;;;;37.42;34.92;;;1.70;86.70;;;;;;5074674;28;20264;-73
2022/04/02 10:34:57;;;;;;;38.20;35.33;;;1.50;87.50;;;;;;5074797;28;20203;-73
2022/04/02 10:37:29;;;;;;;38.20;35.50;;;1.50;87.90;;;;;;5074622;28;20678;-73
2022/04/02 10:40:01;;;;;;;35.47;32.85;;;1.50;88.90;;;;;;5074444;28;20206;-73
2022/04/02 10:42:33;;;;;;;37.38;34.35;;;1.40;90.10;;;;;;5074465;28;20219;-73
2022/04/02 10:45:03;;;;;;;35.22;32.40;;;1.60;89.00;;;;;;5074498;28;20268;-73
2022/04/02 10:47:31;;;;;;;38.00;35.42;;;1.50;88.60;;;;;;5074429;28;20211;-73
2022/04/02 10:50:04;;;;;;;34.20;31.75;;;1.40;88.80;;;;;;5074249;28;20206;-73
2022/04/02 10:52:32;;;;;;;35.00;32.28;;;1.30;88.70;;;;;;5074565;28;20677;-73
2022/04/02 10:54:59;;;;;;;34.28;31.77;;;1.40;89.20;;;;;;5074121;28;20667;-73
2022/04/02 10:57:28;;;;;;;35.08;32.47;;;1.50;87.90;;;;;;5074151;28;20202;-73
2022/04/02 11:00:00;;;;;;;34.15;31.55;;;1.50;87.90;;;;;;5073996;28;20202;-73
2022/04/02 11:02:38;;;;;;;37.45;35.00;;;1.60;87.70;;;;;;5073950;28;20238;-73
2022/04/02 11:05:08;;;;;;;33.28;30.95;;;1.70;86.70;;;;;;5074118;28;20190;-73
2022/04/02 11:07:40;;;;;;;35.10;32.67;;;1.60;86.40;;;;;;5073823;28;20730;-73
2022/04/02 11:10:08;;;;;;;34.65;32.15;;;1.60;87.40;;;;;;5073349;28;20204;-73
2022/04/02 11:12:38;;;;;;;35.90;33.40;;;1.80;87.20;;;;;;5073783;28;20721;-73
2022/04/02 11:15:14;;;;;;;35.38;32.63;;;1.80;86.50;;;;;;5073817;28;20206;-73
2022/04/02 11:17:43;;;;;;;38.05;35.47;;;1.80;85.60;;;;;;5073947;28;20205;-73
2022/04/02 11:20:14;;;;;;;34.92;32.25;;;1.90;85.60;;;;;;5073562;28;20207;-73
2022/04/02 11:22:58;;;;;;;37.03;34.42;;;1.90;86.40;;;;;;5073844;28;20216;-73
2022/04/02 11:25:28;;;;;;;33.97;31.67;;;1.80;85.90;;;;;;5073713;28;20699;-73
2022/04/02 11:27:56;;;;;;;35.97;33.25;;;1.80;86.30;;;;;;5073638;28;20235;-73
2022/04/02 11:30:28;;;;;;;34.85;32.38;;;1.70;85.00;;;;;;5073377;28;20678;-73
2022/04/02 11:33:05;;;;;;;37.25;34.67;;;1.60;87.70;;;;;;5073707;28;20234;-73
2022/04/02 11:35:38;;;;;;;37.17;34.47;;;1.70;87.50;;;;;;5073462;28;20203;-73
2022/04/02 11:38:14;;;;;;;34.58;32.03;;;1.70;87.70;;;;;;5073560;28;20597;-73
2022/04/02 11:40:45;;;;;;;35.58;33.28;;;2.00;87.30;;;;;;5073287;28;20202;-73
2022/04/02 11:43:14;;;;;;;36.85;34.42;;;2.00;86.50;;;;;;5073286;28;20229;-73
2022/04/02 11:45:41;;;;;;;35.42;32.92;;;2.00;86.90;;;;;;5073250;28;20201;-73
2022/04/02 11:48:10;;;;;;;36.22;33.53;;;2.10;87.40;;;;;;5073269;28;20286;-73
2022/04/02 11:50:43;;;;;;;33.80;31.40;;;2.20;86.80;;;;;;5072877;28;20668;-73
2022/04/02 11:53:10;;;;;;;36.58;34.17;;;2.10;87.10;;;;;;5072985;28;20218;-73
2022/04/02 11:55:39;;;;;;;35.72;33.30;;;2.00;87.30;;;;;;5072934;28;20198;-73
2022/04/02 11:58:08;;;;;;;35.58;32.95;;;1.80;88.10;;;;;;5073123;28;20223;-73
2022/04/02 12:00:37;;;;;;;36.95;34.60;;;1.80;88.60;;;;;;5072811;28;20214;-72
2022/04/02 12:03:08;;;;;;;37.83;35.25;;;1.60;88.60;;;;;;5072557;28;20223;-73
2022/04/02 12:05:42;;;;;;;35.90;33.35;;;1.50;89.30;;;;;;5072831;28;20210;-73
2022/04/02 12:08:11;;;;;;;37.90;35.30;;;1.60;89.40;;;;;;5072727;28;20779;-73
2022/04/02 12:10:46;;;;;;;37.10;34.50;;;1.50;89.00;;;;;;5072718;28;20199;-73
2022/04/02 12:13:13;;;;;;;35.75;33.15;;;1.40;90.50;;;;;;5072912;28;20217;-72
2022/04/02 12:15:40;;;;;;;36.05;33.20;;;1.50;90.60;;;;;;5072842;28;20192;-73
2022/04/02 12:18:09;;;;;;;37.97;35.38;;;1.60;90.80;;;;;;5072885;28;20196;-73
2022/04/02 12:20:37;;;;;;;34.85;32.35;;;1.90;90.30;;;;;;5072451;28;20286;-73
2022/04/02 12:23:10;;;;;;;35.70;33.17;;;2.10;90.10;;;;;;5071947;28;20247;-73
2022/04/02 12:25:38;;;;;;;33.92;31.52;;;2.10;89.40;;;;;;5072597;28;20199;-73
2022/04/02 12:28:14;;;;;;;36.90;34.00;;;2.00;89.90;;;;;;5072642;28;20205;-73
2022/04/02 12:30:46;;;;;;;39.95;37.10;;;2.10;88.80;;;;;;5072618;28;20240;-73
2022/04/02 12:33:15;;;;;;;39.17;36.17;;;2.10;87.80;;;;;;5072600;28;20222;-73
2022/04/02 12:35:46;;;;;;;40.42;37.42;;;2.20;86.90;;;;;;5072510;28;20266;-73
2022/04/02 12:38:26;;;;;;;35.85;33.10;;;2.20;86.40;;;;;;5072526;28;20206;-73
2022/04/02 12:40:56;;;;;;;39.72;37.03;;;2.10;87.30;;;;;;5072358;28;20195;-73
2022/04/02 12:43:28;;;;;;;37.50;34.75;;;2.00;88.00;;;;;;5072395;28;20689;-72
2022/04/02 12:45:56;;;;;;;40.20;37.30;;;1.90;87.50;;;;;;5072484;28;20199;-72
2022/04/02 12:48:25;;;;;;;38.55;35.70;;;1.80;89.10;;;;;;5072508;28;20203;-72
2022/04/02 12:50:55;;;;;;;41.28;38.42;;;1.80;89.70;;;;;;5072460;28;20295;-72
2022/04/02 12:53:34;;;;;;;38.53;35.55;;;1.90;88.00;;;;;;5072357;28;20231;-72
2022/04/02 12:56:03;;;;;;;38.83;36.03;;;1.90;88.30;;;;;;5072377;28;20550;-72